Time;durP1;ratioP1;P1;durP2;ratioP2;P2;SDS_P1;SDS_P2;PMS_P1;PMS_P2;Temp;Humidity;BMP_temperature;BMP_pressure;BME280_temperature;BME280_humidity;BME280_pressure;Samples;Min_cycle;Max_cycle;Signal;HPM_P1;HPM_P2
2022/03/26 00:00:34;;;;;;;;;;;;;;;;;;2197627;67;1133;-72
2022/03/26 00:03:08;;;;;;;;;;;;;;;;;;2197080;59;1082;-72
2022/03/26 00:05:41;;;;;;;;;;;;;;;;;;2197419;67;1929;-72
2022/03/26 00:08:15;;;;;;;;;;;;;;;;;;2196181;59;2077;-72
2022/03/26 00:10:48;;;;;;;;;;;;;;;;;;2196888;67;1357;-73
2022/03/26 00:13:24;;;;;;;;;;;;;;;;;;2197543;59;2018;-72
2022/03/26 00:15:57;;;;;;;;;;;;;;;;;;2197219;59;1186;-72
2022/03/26 00:18:30;;;;;;;;;;;;;;;;;;2197338;67;1306;-71
2022/03/26 00:21:03;;;;;;;;;;;;;;;;;;2197370;67;1088;-72
2022/03/26 00:23:37;;;;;;;;;;;;;;;;;;2196192;59;1765;-72
2022/03/26 00:26:12;;;;;;;;;;;;;;;;;;2197317;67;1940;-72
2022/03/26 00:28:47;;;;;;;;;;;;;;;;;;2198252;59;2069;-69
2022/03/26 00:31:20;;;;;;;;;;;;;;;;;;2196695;59;1653;-69
2022/03/26 00:33:54;;;;;;;;;;;;;;;;;;2198161;67;1129;-68
2022/03/26 00:36:27;;;;;;;;;;;;;;;;;;2198612;59;1296;-69
2022/03/26 00:39:00;;;;;;;;;;;;;;;;;;2198393;67;1194;-68
2022/03/26 00:41:33;;;;;;;;;;;;;;;;;;2198116;59;1219;-69
2022/03/26 00:44:10;;;;;;;;;;;;;;;;;;2196384;59;1188;-69
2022/03/26 00:46:44;;;;;;;;;;;;;;;;;;2197621;67;1941;-68
2022/03/26 00:49:19;;;;;;;;;;;;;;;;;;2196245;59;2049;-69
2022/03/26 00:51:52;;;;;;;;;;;;;;;;;;2196958;67;1242;-69
2022/03/26 00:54:25;;;;;;;;;;;;;;;;;;2197855;67;1246;-68
2022/03/26 00:56:59;;;;;;;;;;;;;;;;;;2196655;67;1193;-68
2022/03/26 00:59:35;;;;;;;;;;;;;;;;;;2197161;67;1182;-69
2022/03/26 01:02:08;;;;;;;;;;;;;;;;;;2197094;59;1192;-69
2022/03/26 01:04:41;;;;;;;;;;;;;;;;;;2197228;67;1120;-69
2022/03/26 01:07:14;;;;;;;;;;;;;;;;;;2196166;59;2002;-68
2022/03/26 01:09:47;;;;;;;;;;;;;;;;;;2196970;67;1261;-69
2022/03/26 01:12:20;;;;;;;;;;;;;;;;;;2198110;59;2046;-69
2022/03/26 01:14:56;;;;;;;;;;;;;;;;;;2197734;67;1272;-69
2022/03/26 01:17:29;;;;;;;;;;;;;;;;;;2198063;67;1300;-69
2022/03/26 01:20:04;;;;;;;;;;;;;;;;;;2197780;67;1101;-69
2022/03/26 01:22:37;;;;;;;;;;;;;;;;;;2196997;67;1100;-69
2022/03/26 01:25:11;;;;;;;;;;;;;;;;;;2197124;67;1184;-69
2022/03/26 01:27:44;;;;;;;;;;;;;;;;;;2195892;59;1783;-69
2022/03/26 01:30:20;;;;;;;;;;;;;;;;;;2195234;67;1145;-69
2022/03/26 01:32:53;;;;;;;;;;;;;;;;;;2196989;59;1254;-69
2022/03/26 01:35:26;;;;;;;;;;;;;;;;;;2196501;67;1199;-69
2022/03/26 01:38:01;;;;;;;;;;;;;;;;;;2197390;60;1239;-69
2022/03/26 01:40:34;;;;;;;;;;;;;;;;;;2196947;59;1084;-68
2022/03/26 01:43:08;;;;;;;;;;;;;;;;;;2196583;67;1182;-69
2022/03/26 01:45:44;;;;;;;;;;;;;;;;;;2196498;67;1926;-69
2022/03/26 01:48:17;;;;;;;;;;;;;;;;;;2196438;59;1632;-69
2022/03/26 01:50:50;;;;;;;;;;;;;;;;;;2196444;59;1236;-69
2022/03/26 01:53:23;;;;;;;;;;;;;;;;;;2196023;59;1293;-69
2022/03/26 01:55:56;;;;;;;;;;;;;;;;;;2197020;59;1298;-69
2022/03/26 01:58:29;;;;;;;;;;;;;;;;;;2196251;67;1270;-69
2022/03/26 02:01:05;;;;;;;;;;;;;;;;;;2197132;67;1108;-69
2022/03/26 02:03:38;;;;;;;;;;;;;;;;;;2196908;59;1453;-69
2022/03/26 02:06:11;;;;;;;;;;;;;;;;;;2197149;67;1920;-69
2022/03/26 02:08:45;;;;;;;;;;;;;;;;;;2196249;59;1910;-69
2022/03/26 02:11:18;;;;;;;;;;;;;;;;;;2196297;59;1181;-68
2022/03/26 02:13:52;;;;;;;;;;;;;;;;;;2197392;59;2152;-69
2022/03/26 02:16:28;;;;;;;;;;;;;;;;;;2196261;67;1245;-69
2022/03/26 02:19:02;;;;;;;;;;;;;;;;;;2195946;67;1340;-69
2022/03/26 02:21:38;;;;;;;;;;;;;;;;;;2196921;67;1086;-69
2022/03/26 02:24:11;;;;;;;;;;;;;;;;;;2196709;67;1205;-69
2022/03/26 02:26:45;;;;;;;;;;;;;;;;;;2197555;67;1941;-69
2022/03/26 02:29:18;;;;;;;;;;;;;;;;;;2196520;59;2408;-69
2022/03/26 02:31:51;;;;;;;;;;;;;;;;;;2199495;67;1330;-69
2022/03/26 02:34:24;;;;;;;;;;;;;;;;;;2198731;60;1286;-69
2022/03/26 02:37:01;;;;;;;;;;;;;;;;;;2198894;67;1389;-69
2022/03/26 02:39:34;;;;;;;;;;;;;;;;;;2198483;59;1096;-69
2022/03/26 02:42:08;;;;;;;;;;;;;;;;;;2198027;67;1206;-68
2022/03/26 02:44:41;;;;;;;;;;;;;;;;;;2198011;67;1238;-70
2022/03/26 02:47:14;;;;;;;;;;;;;;;;;;2197420;59;1940;-69
2022/03/26 02:49:47;;;;;;;;;;;;;;;;;;2197746;67;1254;-69
2022/03/26 02:52:26;;;;;;;;;;;;;;;;;;2198136;67;1338;-69
2022/03/26 02:54:59;;;;;;;;;;;;;;;;;;2197724;67;1143;-68
2022/03/26 02:57:32;;;;;;;;;;;;;;;;;;2197372;67;1237;-69
2022/03/26 03:00:07;;;;;;;;;;;;;;;;;;2196524;67;1269;-69
2022/03/26 03:02:40;;;;;;;;;;;;;;;;;;2198145;59;1161;-69
2022/03/26 03:05:13;;;;;;;;;;;;;;;;;;2198279;67;1191;-69
2022/03/26 03:07:50;;;;;;;;;;;;;;;;;;2196435;59;1997;-69
2022/03/26 03:10:23;;;;;;;;;;;;;;;;;;2197010;67;1285;-69
2022/03/26 03:12:56;;;;;;;;;;;;;;;;;;2197589;59;1930;-69
2022/03/26 03:15:30;;;;;;;;;;;;;;;;;;2198265;59;1254;-68
2022/03/26 03:18:03;;;;;;;;;;;;;;;;;;2197554;67;1184;-69
2022/03/26 03:20:36;;;;;;;;;;;;;;;;;;2198397;67;1218;-69
2022/03/26 03:23:13;;;;;;;;;;;;;;;;;;2197749;67;1181;-69
2022/03/26 03:25:46;;;;;;;;;;;;;;;;;;2197207;60;1176;-68
2022/03/26 03:28:19;;;;;;;;;;;;;;;;;;2197130;59;1979;-68
2022/03/26 03:30:52;;;;;;;;;;;;;;;;;;2196680;67;1275;-69
2022/03/26 03:33:25;;;;;;;;;;;;;;;;;;2199128;67;1100;-69
2022/03/26 03:35:59;;;;;;;;;;;;;;;;;;2197585;67;1244;-68
2022/03/26 03:38:35;;;;;;;;;;;;;;;;;;2200315;67;1775;-69
2022/03/26 03:41:09;;;;;;;;;;;;;;;;;;2198450;67;1085;-69
2022/03/26 03:43:42;;;;;;;;;;;;;;;;;;2198149;67;1247;-69
2022/03/26 03:46:15;;;;;;;;;;;;;;;;;;2198101;67;1933;-69
2022/03/26 03:48:48;;;;;;;;;;;;;;;;;;2197645;59;2091;-68
2022/03/26 03:51:22;;;;;;;;;;;;;;;;;;2196779;67;1251;-69
2022/03/26 03:53:57;;;;;;;;;;;;;;;;;;2197534;67;1289;-69
2022/03/26 03:56:31;;;;;;;;;;;;;;;;;;2196778;59;1195;-68
2022/03/26 03:59:04;;;;;;;;;;;;;;;;;;2196968;67;1254;-69
2022/03/26 04:01:37;;;;;;;;;;;;;;;;;;2197855;67;1107;-68
2022/03/26 04:04:10;;;;;;;;;;;;;;;;;;2198382;59;1137;-69
2022/03/26 04:06:43;;;;;;;;;;;;;;;;;;2197374;67;2167;-69
2022/03/26 04:09:20;;;;;;;;;;;;;;;;;;2196175;59;2057;-69
2022/03/26 04:11:53;;;;;;;;;;;;;;;;;;2196713;59;2006;-68
2022/03/26 04:14:26;;;;;;;;;;;;;;;;;;2197746;67;1239;-68
2022/03/26 04:16:59;;;;;;;;;;;;;;;;;;2198620;67;1181;-69
2022/03/26 04:19:33;;;;;;;;;;;;;;;;;;2198016;67;1210;-68
2022/03/26 04:22:06;;;;;;;;;;;;;;;;;;2197812;67;1193;-69
2022/03/26 04:24:42;;;;;;;;;;;;;;;;;;2197463;67;1255;-68
2022/03/26 04:27:15;;;;;;;;;;;;;;;;;;2196877;59;1941;-68
2022/03/26 04:29:48;;;;;;;;;;;;;;;;;;2196563;59;1259;-69
2022/03/26 04:32:21;;;;;;;;;;;;;;;;;;2198891;67;1171;-69
2022/03/26 04:34:55;;;;;;;;;;;;;;;;;;2197288;67;1239;-68
2022/03/26 04:37:28;;;;;;;;;;;;;;;;;;2200548;67;1234;-69
2022/03/26 04:40:04;;;;;;;;;;;;;;;;;;2198187;59;1102;-68
2022/03/26 04:42:37;;;;;;;;;;;;;;;;;;2198080;67;1132;-68
2022/03/26 04:45:11;;;;;;;;;;;;;;;;;;2197863;59;1219;-69
2022/03/26 04:47:44;;;;;;;;;;;;;;;;;;2196092;59;1942;-69
2022/03/26 04:50:17;;;;;;;;;;;;;;;;;;2195491;63;1306;-68
2022/03/26 04:52:51;;;;;;;;;;;;;;;;;;2196850;67;1246;-68
2022/03/26 04:55:27;;;;;;;;;;;;;;;;;;2197250;67;1243;-69
2022/03/26 04:58:00;;;;;;;;;;;;;;;;;;2196461;67;1118;-68
2022/03/26 05:00:33;;;;;;;;;;;;;;;;;;2197473;67;1119;-68
2022/03/26 05:03:06;;;;;;;;;;;;;;;;;;2197076;59;1251;-69
2022/03/26 05:05:39;;;;;;;;;;;;;;;;;;2196455;59;1214;-69
2022/03/26 05:08:12;;;;;;;;;;;;;;;;;;2194520;59;2256;-68
2022/03/26 05:10:48;;;;;;;;;;;;;;;;;;2195640;60;1239;-68
2022/03/26 05:13:21;;;;;;;;;;;;;;;;;;2195809;67;2261;-69
2022/03/26 05:15:54;;;;;;;;;;;;;;;;;;2196132;59;1112;-69
2022/03/26 05:18:28;;;;;;;;;;;;;;;;;;2195837;67;1289;-68
2022/03/26 05:21:01;;;;;;;;;;;;;;;;;;2197356;67;1085;-69
2022/03/26 05:23:34;;;;;;;;;;;;;;;;;;2196463;67;1087;-69
2022/03/26 05:26:10;;;;;;;;;;;;;;;;;;2195214;60;1730;-69
2022/03/26 05:28:43;;;;;;;;;;;;;;;;;;2194675;59;1934;-68
2022/03/26 05:31:17;;;;;;;;;;;;;;;;;;2197714;67;1149;-68
2022/03/26 05:33:50;;;;;;;;;;;;;;;;;;2196912;60;1248;-69
2022/03/26 05:36:23;;;;;;;;;;;;;;;;;;2195623;67;1215;-69
2022/03/26 05:38:57;;;;;;;;;;;;;;;;;;2196835;59;1251;-68
2022/03/26 05:41:33;;;;;;;;;;;;;;;;;;2197176;67;1104;-69
2022/03/26 05:44:06;;;;;;;;;;;;;;;;;;2196495;67;1125;-68
2022/03/26 05:46:39;;;;;;;;;;;;;;;;;;2197374;59;1206;-68
2022/03/26 05:49:12;;;;;;;;;;;;;;;;;;2195444;59;1957;-69
2022/03/26 05:51:45;;;;;;;;;;;;;;;;;;2197209;67;1286;-69
2022/03/26 05:54:19;;;;;;;;;;;;;;;;;;2197096;59;1214;-69
2022/03/26 05:56:54;;;;;;;;;;;;;;;;;;2196736;59;1215;-69
2022/03/26 05:59:29;;;;;;;;;;;;;;;;;;2197114;59;1128;-69
2022/03/26 06:02:02;;;;;;;;;;;;;;;;;;2196265;67;1143;-69
2022/03/26 06:04:35;;;;;;;;;;;;;;;;;;2196637;67;1213;-69
2022/03/26 06:07:08;;;;;;;;;;;;;;;;;;2196792;59;1944;-68
2022/03/26 06:09:41;;;;;;;;;;;;;;;;;;2196888;67;1204;-69
2022/03/26 06:12:17;;;;;;;;;;;;;;;;;;2198194;59;2009;-68
2022/03/26 06:14:51;;;;;;;;;;;;;;;;;;2197526;67;1117;-68
2022/03/26 06:17:24;;;;;;;;;;;;;;;;;;2198629;59;1296;-69
2022/03/26 06:19:57;;;;;;;;;;;;;;;;;;2197413;59;1154;-69
2022/03/26 06:22:31;;;;;;;;;;;;;;;;;;2197236;67;1065;-69
2022/03/26 06:25:04;;;;;;;;;;;;;;;;;;2196535;67;1189;-69
2022/03/26 06:30:15;;;;;;;;;;;;;;;;;;2203383;58;1211;-69
2022/03/26 06:32:48;;;;;;;;;;;;;;;;;;2201581;59;1172;-69
2022/03/26 06:35:22;;;;;;;;;;;;;;;;;;2202428;67;1159;-69
2022/03/26 06:37:55;;;;;;;;;;;;;;;;;;2202733;59;1485;-69
2022/03/26 06:40:28;;;;;;;;;;;;;;;;;;2203763;67;1068;-69
2022/03/26 06:43:01;;;;;;;;;;;;;;;;;;2203759;67;1262;-69
2022/03/26 06:45:38;;;;;;;;;;;;;;;;;;2203953;59;1219;-69
2022/03/26 06:48:11;;;;;;;;;;;;;;;;;;2203323;59;1941;-69
2022/03/26 06:50:44;;;;;;;;;;;;;;;;;;2203894;67;1283;-69
2022/03/26 06:53:18;;;;;;;;;;;;;;;;;;2203933;67;1305;-69
2022/03/26 06:55:51;;;;;;;;;;;;;;;;;;2203942;67;1304;-70
2022/03/26 06:58:25;;;;;;;;;;;;;;;;;;2203665;67;1249;-69
2022/03/26 07:01:01;;;;;;;;;;;;;;;;;;2203871;67;1086;-69
2022/03/26 07:03:35;;;;;;;;;;;;;;;;;;2203691;59;1328;-69
2022/03/26 07:06:08;;;;;;;;;;;;;;;;;;2203763;67;1195;-69
2022/03/26 07:08:41;;;;;;;;;;;;;;;;;;2202755;59;1938;-69
2022/03/26 07:11:15;;;;;;;;;;;;;;;;;;2203729;67;1179;-69
2022/03/26 07:13:49;;;;;;;;;;;;;;;;;;2203658;59;2076;-69
2022/03/26 07:16:25;;;;;;;;;;;;;;;;;;2203571;67;1263;-69
2022/03/26 07:18:58;;;;;;;;;;;;;;;;;;2203568;67;1248;-69
2022/03/26 07:21:32;;;;;;;;;;;;;;;;;;2203238;67;1100;-69
2022/03/26 07:24:05;;;;;;;;;;;;;;;;;;2202358;67;1479;-70
2022/03/26 07:26:38;;;;;;;;;;;;;;;;;;2204212;67;1321;-69
2022/03/26 07:29:11;;;;;;;;;;;;;;;;;;2203501;59;1925;-69
2022/03/26 07:31:48;;;;;;;;;;;;;;;;;;2204019;67;1313;-69
2022/03/26 07:34:22;;;;;;;;;;;;;;;;;;2203842;67;1309;-69
2022/03/26 07:36:56;;;;;;;;;;;;;;;;;;2203433;59;1234;-69
2022/03/26 07:39:29;;;;;;;;;;;;;;;;;;2203697;59;1687;-69
2022/03/26 07:42:03;;;;;;;;;;;;;;;;;;2203260;67;1176;-69
2022/03/26 07:44:36;;;;;;;;;;;;;;;;;;2203552;67;1209;-69
2022/03/26 07:47:12;;;;;;;;;;;;;;;;;;2203159;59;1684;-69
2022/03/26 07:49:45;;;;;;;;;;;;;;;;;;2203246;67;1991;-69
2022/03/26 07:52:19;;;;;;;;;;;;;;;;;;2203411;59;1577;-69
2022/03/26 07:54:52;;;;;;;;;;;;;;;;;;2203392;59;1206;-69
2022/03/26 07:57:26;;;;;;;;;;;;;;;;;;2203576;67;1257;-69
2022/03/26 08:00:00;;;;;;;;;;;;;;;;;;2203388;67;1147;-69
2022/03/26 08:02:35;;;;;;;;;;;;;;;;;;2203461;59;1100;-69
2022/03/26 08:05:09;;;;;;;;;;;;;;;;;;2203221;67;1284;-69
2022/03/26 08:07:42;;;;;;;;;;;;;;;;;;2203095;59;1992;-69
2022/03/26 08:10:15;;;;;;;;;;;;;;;;;;2202916;59;1630;-69
2022/03/26 08:12:48;;;;;;;;;;;;;;;;;;2203250;59;1942;-69
2022/03/26 08:15:22;;;;;;;;;;;;;;;;;;2202196;67;1269;-69
2022/03/26 08:17:59;;;;;;;;;;;;;;;;;;2203161;67;1207;-69
2022/03/26 08:20:32;;;;;;;;;;;;;;;;;;2203078;67;1071;-69
2022/03/26 08:23:06;;;;;;;;;;;;;;;;;;2202578;59;1777;-69
2022/03/26 08:28:28;;;;;;;;;;;;;;;;;;2202854;59;1932;-69
2022/03/26 08:31:02;;;;;;;;;;;;;;;;;;2203376;67;1134;-69
2022/03/26 08:33:38;;;;;;;;;;;;;;;;;;2203506;67;1321;-69
2022/03/26 08:36:11;;;;;;;;;;;;;;;;;;2202710;67;1114;-69
2022/03/26 08:38:46;;;;;;;;;;;;;;;;;;2203432;59;1663;-69
2022/03/26 08:41:21;;;;;;;;;;;;;;;;;;2203017;67;1210;-69
2022/03/26 08:43:54;;;;;;;;;;;;;;;;;;2203406;67;1290;-69
2022/03/26 08:46:28;;;;;;;;;;;;;;;;;;2203286;67;1104;-69
2022/03/26 08:49:03;;;;;;;;;;;;;;;;;;2202930;59;1991;-69
2022/03/26 08:51:37;;;;;;;;;;;;;;;;;;2203278;67;1281;-69
2022/03/26 08:54:10;;;;;;;;;;;;;;;;;;2203409;59;1187;-69
2022/03/26 08:56:43;;;;;;;;;;;;;;;;;;2202184;67;1207;-69
2022/03/26 08:59:16;;;;;;;;;;;;;;;;;;2203402;67;1262;-69
2022/03/26 09:01:50;;;;;;;;;;;;;;;;;;2203422;59;1166;-69
2022/03/26 09:04:26;;;;;;;;;;;;;;;;;;2202977;59;2077;-69
2022/03/26 09:06:59;;;;;;;;;;;;;;;;;;2203293;59;1849;-69
2022/03/26 09:09:32;;;;;;;;;;;;;;;;;;2202372;59;1968;-69
2022/03/26 09:12:05;;;;;;;;;;;;;;;;;;2203294;59;1915;-69
2022/03/26 09:14:39;;;;;;;;;;;;;;;;;;2203165;67;1084;-69
2022/03/26 09:17:12;;;;;;;;;;;;;;;;;;2203011;59;1246;-69
2022/03/26 09:19:48;;;;;;;;;;;;;;;;;;2203263;59;1145;-69
2022/03/26 09:22:23;;;;;;;;;;;;;;;;;;2203181;59;1281;-69
2022/03/26 09:24:56;;;;;;;;;;;;;;;;;;2203077;59;1266;-69
2022/03/26 09:27:29;;;;;;;;;;;;;;;;;;2202615;59;1733;-69
2022/03/26 09:30:02;;;;;;;;;;;;;;;;;;2203021;59;1936;-69
2022/03/26 09:32:36;;;;;;;;;;;;;;;;;;2203065;59;1672;-69
2022/03/26 09:35:12;;;;;;;;;;;;;;;;;;2203145;67;1088;-69
2022/03/26 09:37:45;;;;;;;;;;;;;;;;;;2203320;59;1944;-70
2022/03/26 09:40:19;;;;;;;;;;;;;;;;;;2203584;67;1121;-69
2022/03/26 09:42:53;;;;;;;;;;;;;;;;;;2203950;67;1258;-69
2022/03/26 09:45:27;;;;;;;;;;;;;;;;;;2203824;67;1261;-69
2022/03/26 09:48:00;;;;;;;;;;;;;;;;;;2203596;59;1756;-69
2022/03/26 09:50:37;;;;;;;;;;;;;;;;;;2203554;59;1942;-69
2022/03/26 09:53:12;;;;;;;;;;;;;;;;;;2203775;59;1180;-70
2022/03/26 09:55:45;;;;;;;;;;;;;;;;;;2203602;59;1626;-69
2022/03/26 09:58:19;;;;;;;;;;;;;;;;;;2203574;59;1660;-69
2022/03/26 10:00:53;;;;;;;;;;;;;;;;;;2203941;67;1127;-69
2022/03/26 10:03:26;;;;;;;;;;;;;;;;;;2203722;67;1096;-69
2022/03/26 10:06:07;;;;;;;;;;;;;;;;;;2203662;59;1555;-70
2022/03/26 10:08:41;;;;;;;;;;;;;;;;;;2203070;59;2128;-70
2022/03/26 10:11:22;;;;;;;;;;;;;;;;;;2203791;59;1521;-70
2022/03/26 10:13:55;;;;;;;;;;;;;;;;;;2203171;59;2178;-69
2022/03/26 10:16:28;;;;;;;;;;;;;;;;;;2203756;67;1276;-69
2022/03/26 10:19:03;;;;;;;;;;;;;;;;;;2203772;67;1229;-70
2022/03/26 10:21:39;;;;;;;;;;;;;;;;;;2203701;67;1093;-69
2022/03/26 10:24:13;;;;;;;;;;;;;;;;;;2203727;67;1062;-70
2022/03/26 10:26:46;;;;;;;;;;;;;;;;;;2203993;67;1293;-69
2022/03/26 10:29:19;;;;;;;;;;;;;;;;;;2203536;59;1988;-69
2022/03/26 10:34:42;;;;;;;;;;;;;;;;;;2202980;67;1163;-70
2022/03/26 10:37:20;;;;;;;;;;;;;;;;;;2203702;67;1243;-69
2022/03/26 10:39:54;;;;;;;;;;;;;;;;;;2204026;67;1163;-69
2022/03/26 10:42:31;;;;;;;;;;;;;;;;;;2203538;67;1119;-69
2022/03/26 10:45:04;;;;;;;;;;;;;;;;;;2203103;67;1085;-70
2022/03/26 10:47:40;;;;;;;;;;;;;;;;;;2203433;59;1791;-69
2022/03/26 10:50:16;;;;;;;;;;;;;;;;;;2203254;67;1979;-69
2022/03/26 10:52:52;;;;;;;;;;;;;;;;;;2203983;59;1214;-69
2022/03/26 10:55:28;;;;;;;;;;;;;;;;;;2203675;67;1199;-70
2022/03/26 10:58:04;;;;;;;;;;;;;;;;;;2203644;67;1246;-70
2022/03/26 11:00:37;;;;;;;;;;;;;;;;;;2203581;67;1109;-69
2022/03/26 11:03:17;;;;;;;;;;;;;;;;;;2203424;67;1257;-69
2022/03/26 11:05:55;;;;;;;;;;;;;;;;;;2203594;59;1205;-70
2022/03/26 11:08:35;;;;;;;;;;;;;;;;;;2203322;59;2192;-69
2022/03/26 11:11:09;;;;;;;;;;;;;;;;;;2203165;67;1930;-69
2022/03/26 11:13:52;;;;;;;;;;;;;;;;;;2203573;59;2062;-69
2022/03/26 11:16:32;;;;;;;;;;;;;;;;;;2203615;67;1254;-69
2022/03/26 11:19:12;;;;;;;;;;;;;;;;;;2203204;67;1196;-69
2022/03/26 11:22:03;;;;;;;;;;;;;;;;;;2202543;59;1699;-69
2022/03/26 11:24:52;;;;;;;;;;;;;;;;;;2202761;67;1142;-69
2022/03/26 11:27:46;;;;;;;;;;;;;;;;;;2203051;59;1780;-70
2022/03/26 11:30:41;;;;;;;;;;;;;;;;;;2203286;67;1969;-70
2022/03/26 11:33:15;;;;;;;;;;;;;;;;;;2203134;59;1576;-70
2022/03/26 11:35:56;;;;;;;;;;;;;;;;;;2203769;67;1384;-70
2022/03/26 11:38:30;;;;;;;;;;;;;;;;;;2204006;67;1277;-69
2022/03/26 11:41:07;;;;;;;;;;;;;;;;;;2203873;67;1034;-69
2022/03/26 11:43:55;;;;;;;;;;;;;;;;;;2203757;67;1032;-69
2022/03/26 11:52:22;;;;;;;;;;;;;;;;;;2203573;67;1059;-69
2022/03/26 11:54:59;;;;;;;;;;;;;;;;;;2203907;59;1329;-69
2022/03/26 11:57:38;;;;;;;;;;;;;;;;;;2203376;67;1211;-69
2022/03/26 12:00:17;;;;;;;;;;;;;;;;;;2203219;59;1538;-70
2022/03/26 12:02:54;;;;;;;;;;;;;;;;;;2203411;67;1297;-70
2022/03/26 12:08:19;;;;;;;;;;;;;;;;;;2202157;59;2142;-69
2022/03/26 12:10:53;;;;;;;;;;;;;;;;;;2203329;59;1936;-70
2022/03/26 12:13:34;;;;;;;;;;;;;;;;;;2203322;59;1856;-70
2022/03/26 12:16:08;;;;;;;;;;;;;;;;;;2203196;67;1246;-69
2022/03/26 12:18:43;;;;;;;;;;;;;;;;;;2203590;67;1415;-70
2022/03/26 12:21:20;;;;;;;;;;;;;;;;;;2202768;67;1059;-70
2022/03/26 12:23:54;;;;;;;;;;;;;;;;;;2202841;67;1465;-70
2022/03/26 12:26:30;;;;;;;;;;;;;;;;;;2203296;59;1111;-70
2022/03/26 12:29:06;;;;;;;;;;;;;;;;;;2212649;54;3571;-72
2022/03/26 12:31:39;;;;;;;;;;;;;;;;;;2216229;59;1206;-72
2022/03/26 12:34:13;;;;;;;;;;;;;;;;;;2217118;66;1136;-72
2022/03/26 12:36:46;;;;;;;;;;;;;;;;;;2214471;59;1104;-72
2022/03/26 12:39:19;;;;;;;;;;;;;;;;;;2216144;66;1178;-72
2022/03/26 12:41:52;;;;;;;;;;;;;;;;;;2216127;66;1079;-72
2022/03/26 12:44:28;;;;;;;;;;;;;;;;;;2215361;59;2000;-72
2022/03/26 12:47:01;;;;;;;;;;;;;;;;;;2215128;66;1028;-72
2022/03/26 12:49:38;;;;;;;;;;;;;;;;;;2213197;59;1932;-72
2022/03/26 12:52:11;;;;;;;;;;;;;;;;;;2214866;59;1128;-73
2022/03/26 12:54:44;;;;;;;;;;;;;;;;;;2216265;66;1326;-72
2022/03/26 12:57:19;;;;;;;;;;;;;;;;;;2216051;59;1283;-72
2022/03/26 12:59:53;;;;;;;;;;;;;;;;;;2213835;66;1196;-72
2022/03/26 13:02:28;;;;;;;;;;;;;;;;;;2215249;59;1318;-72
2022/03/26 13:05:02;;;;;;;;;;;;;;;;;;2214895;59;1220;-73
2022/03/26 13:07:38;;;;;;;;;;;;;;;;;;2215275;59;2088;-72
2022/03/26 13:10:11;;;;;;;;;;;;;;;;;;2215672;66;1921;-72
2022/03/26 13:12:50;;;;;;;;;;;;;;;;;;2211511;66;2172;-73
2022/03/26 13:15:26;;;;;;;;;;;;;;;;;;2216863;66;1222;-72
2022/03/26 13:18:01;;;;;;;;;;;;;;;;;;2216395;66;1347;-72
2022/03/26 13:20:35;;;;;;;;;;;;;;;;;;2214694;59;1590;-73
2022/03/26 13:23:10;;;;;;;;;;;;;;;;;;2215082;66;1266;-72
2022/03/26 13:25:45;;;;;;;;;;;;;;;;;;2215363;66;1241;-73
2022/03/26 13:28:18;;;;;;;;;;;;;;;;;;2214520;59;1734;-72
2022/03/26 13:30:54;;;;;;;;;;;;;;;;;;2216196;59;1920;-72
2022/03/26 13:33:29;;;;;;;;;;;;;;;;;;2216556;66;1118;-72
2022/03/26 13:36:05;;;;;;;;;;;;;;;;;;2211925;59;1647;-72
2022/03/26 13:38:39;;;;;;;;;;;;;;;;;;2216711;66;1194;-72
2022/03/26 13:41:16;;;;;;;;;;;;;;;;;;2217325;66;1219;-72
2022/03/26 13:43:50;;;;;;;;;;;;;;;;;;2212537;66;1160;-72
2022/03/26 13:46:26;;;;;;;;;;;;;;;;;;2217209;66;1243;-72
2022/03/26 13:49:00;;;;;;;;;;;;;;;;;;2211339;59;2109;-71
2022/03/26 13:51:34;;;;;;;;;;;;;;;;;;2215130;59;1936;-72
2022/03/26 13:54:08;;;;;;;;;;;;;;;;;;2215634;66;1111;-72
2022/03/26 13:56:42;;;;;;;;;;;;;;;;;;2216063;66;1290;-72
2022/03/26 13:59:15;;;;;;;;;;;;;;;;;;2216663;66;1251;-72
2022/03/26 14:01:53;;;;;;;;;;;;;;;;;;2216633;66;1089;-72
2022/03/26 14:04:28;;;;;;;;;;;;;;;;;;2214728;59;1225;-72
2022/03/26 14:07:01;;;;;;;;;;;;;;;;;;2215192;59;1910;-72
2022/03/26 14:09:34;;;;;;;;;;;;;;;;;;2214057;59;2056;-72
2022/03/26 14:12:07;;;;;;;;;;;;;;;;;;2213459;59;2002;-72
2022/03/26 14:14:40;;;;;;;;;;;;;;;;;;2213658;66;1220;-72
2022/03/26 14:17:16;;;;;;;;;;;;;;;;;;2216096;66;1262;-72
2022/03/26 14:19:49;;;;;;;;;;;;;;;;;;2213871;59;2099;-72
2022/03/26 14:22:22;;;;;;;;;;;;;;;;;;2214900;59;1280;-72
2022/03/26 14:24:55;;;;;;;;;;;;;;;;;;2215345;66;1239;-72
2022/03/26 14:27:29;;;;;;;;;;;;;;;;;;2215756;59;1810;-72
2022/03/26 14:30:02;;;;;;;;;;;;;;;;;;2216483;59;1945;-72
2022/03/26 14:32:38;;;;;;;;;;;;;;;;;;2216434;66;1059;-72
2022/03/26 14:35:11;;;;;;;;;;;;;;;;;;2215881;66;1095;-72
2022/03/26 14:37:44;;;;;;;;;;;;;;;;;;2216180;59;1249;-72
2022/03/26 14:40:18;;;;;;;;;;;;;;;;;;2215195;59;1480;-72
2022/03/26 14:42:51;;;;;;;;;;;;;;;;;;2212521;66;1262;-72
2022/03/26 14:45:24;;;;;;;;;;;;;;;;;;2216355;59;1276;-72
2022/03/26 14:48:00;;;;;;;;;;;;;;;;;;2214355;59;2039;-72
2022/03/26 14:50:33;;;;;;;;;;;;;;;;;;2214693;59;1941;-72
2022/03/26 14:53:06;;;;;;;;;;;;;;;;;;2212715;66;1550;-72
2022/03/26 14:55:40;;;;;;;;;;;;;;;;;;2212951;66;1334;-72
2022/03/26 14:58:13;;;;;;;;;;;;;;;;;;2216806;66;1201;-72
2022/03/26 15:00:46;;;;;;;;;;;;;;;;;;2217150;66;1112;-72
2022/03/26 15:03:24;;;;;;;;;;;;;;;;;;2211843;66;1266;-72
2022/03/26 15:05:57;;;;;;;;;;;;;;;;;;2216514;66;1135;-72
2022/03/26 15:08:30;;;;;;;;;;;;;;;;;;2215607;59;1920;-72
2022/03/26 15:11:04;;;;;;;;;;;;;;;;;;2216779;59;1931;-72
2022/03/26 15:13:37;;;;;;;;;;;;;;;;;;2216673;59;1922;-72
2022/03/26 15:16:10;;;;;;;;;;;;;;;;;;2216772;66;1250;-72
2022/03/26 15:18:46;;;;;;;;;;;;;;;;;;2212068;66;1449;-72
2022/03/26 15:21:20;;;;;;;;;;;;;;;;;;2216718;66;1273;-72
2022/03/26 15:23:53;;;;;;;;;;;;;;;;;;2216489;66;1214;-72
2022/03/26 15:26:26;;;;;;;;;;;;;;;;;;2215966;66;1184;-72
2022/03/26 15:28:59;;;;;;;;;;;;;;;;;;2215827;58;1750;-72
2022/03/26 15:31:32;;;;;;;;;;;;;;;;;;2216122;66;1931;-72
2022/03/26 15:34:08;;;;;;;;;;;;;;;;;;2215616;59;1080;-72
2022/03/26 15:36:41;;;;;;;;;;;;;;;;;;2217174;66;1322;-72
2022/03/26 15:39:14;;;;;;;;;;;;;;;;;;2214122;66;1194;-72
2022/03/26 15:41:49;;;;;;;;;;;;;;;;;;2216605;66;1068;-72
2022/03/26 15:44:22;;;;;;;;;;;;;;;;;;2213768;66;1250;-72
2022/03/26 15:46:57;;;;;;;;;;;;;;;;;;2213466;66;1145;-72
2022/03/26 15:49:35;;;;;;;;;;;;;;;;;;2215792;59;1590;-72
2022/03/26 15:52:09;;;;;;;;;;;;;;;;;;2216697;66;1927;-72
2022/03/26 15:54:42;;;;;;;;;;;;;;;;;;2214061;66;1894;-72
2022/03/26 15:57:15;;;;;;;;;;;;;;;;;;2216312;59;1594;-72
2022/03/26 15:59:49;;;;;;;;;;;;;;;;;;2217312;66;1068;-72
2022/03/26 16:02:22;;;;;;;;;;;;;;;;;;2213365;66;1473;-71
2022/03/26 16:04:59;;;;;;;;;;;;;;;;;;2215279;59;1213;-72
2022/03/26 16:07:32;;;;;;;;;;;;;;;;;;2216060;59;1939;-72
2022/03/26 16:10:06;;;;;;;;;;;;;;;;;;2215790;66;1054;-73
2022/03/26 16:12:40;;;;;;;;;;;;;;;;;;2215887;59;1991;-72
2022/03/26 16:15:13;;;;;;;;;;;;;;;;;;2211421;59;1718;-72
2022/03/26 16:17:46;;;;;;;;;;;;;;;;;;2215237;66;1284;-72
2022/03/26 16:20:22;;;;;;;;;;;;;;;;;;2216808;66;1251;-72
2022/03/26 16:22:55;;;;;;;;;;;;;;;;;;2216830;66;1223;-72
2022/03/26 16:25:28;;;;;;;;;;;;;;;;;;2212526;66;1561;-72
2022/03/26 16:28:02;;;;;;;;;;;;;;;;;;2215289;59;1658;-72
2022/03/26 16:30:36;;;;;;;;;;;;;;;;;;2216086;59;1980;-72
2022/03/26 16:33:09;;;;;;;;;;;;;;;;;;2217182;59;1238;-72
2022/03/26 16:35:47;;;;;;;;;;;;;;;;;;2213124;66;1250;-72
2022/03/26 16:38:20;;;;;;;;;;;;;;;;;;2217419;59;1223;-72
2022/03/26 16:40:53;;;;;;;;;;;;;;;;;;2215919;66;1331;-72
2022/03/26 16:43:26;;;;;;;;;;;;;;;;;;2216979;59;1202;-72
2022/03/26 16:46:00;;;;;;;;;;;;;;;;;;2216201;59;1119;-72
2022/03/26 16:48:33;;;;;;;;;;;;;;;;;;2214753;59;1756;-72
2022/03/26 16:51:09;;;;;;;;;;;;;;;;;;2215685;66;1992;-72
2022/03/26 16:53:45;;;;;;;;;;;;;;;;;;2215480;66;1179;-72
2022/03/26 16:56:18;;;;;;;;;;;;;;;;;;2214133;66;1203;-72
2022/03/26 16:58:51;;;;;;;;;;;;;;;;;;2211359;59;1564;-72
2022/03/26 17:01:24;;;;;;;;;;;;;;;;;;2217374;59;1381;-72
2022/03/26 17:03:57;;;;;;;;;;;;;;;;;;2216278;66;1289;-71
2022/03/26 17:06:33;;;;;;;;;;;;;;;;;;2215922;59;2011;-72
2022/03/26 17:09:07;;;;;;;;;;;;;;;;;;2215728;59;1785;-72
2022/03/26 17:11:40;;;;;;;;;;;;;;;;;;2217174;59;2246;-72
2022/03/26 17:14:13;;;;;;;;;;;;;;;;;;2217464;60;1201;-72
2022/03/26 17:16:46;;;;;;;;;;;;;;;;;;2216592;66;1359;-72
2022/03/26 17:19:19;;;;;;;;;;;;;;;;;;2216295;66;1284;-72
2022/03/26 17:21:56;;;;;;;;;;;;;;;;;;2215816;59;1207;-72
2022/03/26 17:24:29;;;;;;;;;;;;;;;;;;2214696;66;1128;-72
2022/03/26 17:27:02;;;;;;;;;;;;;;;;;;2211983;66;1466;-71
2022/03/26 17:29:35;;;;;;;;;;;;;;;;;;2214777;59;1783;-72
2022/03/26 17:32:09;;;;;;;;;;;;;;;;;;2212513;66;1933;-72
2022/03/26 17:34:42;;;;;;;;;;;;;;;;;;2215808;66;1243;-72
2022/03/26 17:37:18;;;;;;;;;;;;;;;;;;2216063;59;1266;-72
2022/03/26 17:39:51;;;;;;;;;;;;;;;;;;2214810;58;1220;-72
2022/03/26 17:42:25;;;;;;;;;;;;;;;;;;2216020;66;1290;-72
2022/03/26 17:44:58;;;;;;;;;;;;;;;;;;2211402;66;1214;-72
2022/03/26 17:47:31;;;;;;;;;;;;;;;;;;2213732;59;1838;-72
2022/03/26 17:50:05;;;;;;;;;;;;;;;;;;2213701;66;1183;-72
2022/03/26 17:52:41;;;;;;;;;;;;;;;;;;2212139;66;1928;-72
2022/03/26 17:55:15;;;;;;;;;;;;;;;;;;2215216;66;1095;-72
2022/03/26 17:57:48;;;;;;;;;;;;;;;;;;2215429;66;1274;-72
2022/03/26 18:00:21;;;;;;;;;;;;;;;;;;2217266;66;1243;-72
2022/03/26 18:02:54;;;;;;;;;;;;;;;;;;2211932;66;1261;-72
2022/03/26 18:05:28;;;;;;;;;;;;;;;;;;2215359;59;1233;-72
2022/03/26 18:08:03;;;;;;;;;;;;;;;;;;2215777;59;1948;-72